Terminal Aerodrome Forecast
Issued by NWS Kansas City/Pleasant Hill, MO

Home | Current Version | Previous Version | Text Only | Print | Product List | Glossary On
Versions: 1 2 3 4 5 6 7 8 9 10 11 12 13 14 15
000
FTUS43 KEAX 070016 AAA
TAFMCI
TAF AMD
KMCI 070016Z 0700/0724 04008KT P6SM -RA VCTS BKN070CB
     FM070200 36009KT 4SM -RA OVC025
     FM070500 01012KT P6SM OVC025
     FM071100 01011G19KT P6SM OVC100=

USA.gov is the U.S. government's official web portal to all federal, state and local government web resources and services.